Time;durP1;ratioP1;P1;durP2;ratioP2;P2;SDS_P1;SDS_P2;PMS_P1;PMS_P2;Temp;Humidity;BMP_temperature;BMP_pressure;BME280_temperature;BME280_humidity;BME280_pressure;Samples;Min_cycle;Max_cycle;Signal;HPM_P1;HPM_P2
2022/11/04 00:01:46;;;;;;;10.93;8.18;;;12.60;99.90;;;;;;5032809;28;20075;-73
2022/11/04 00:04:13;;;;;;;12.85;8.13;;;12.60;99.90;;;;;;5060382;28;20074;-74
2022/11/04 00:06:39;;;;;;;11.23;7.80;;;12.60;99.90;;;;;;5052307;28;20086;-74
2022/11/04 00:09:07;;;;;;;10.23;7.57;;;12.60;99.90;;;;;;5052937;28;20127;-75
2022/11/04 00:14:18;;;;;;;9.57;7.00;;;12.60;99.90;;;;;;5054974;28;20120;-74
2022/11/04 00:28:41;;;;;;;9.90;6.72;;;12.50;99.90;;;;;;5069513;28;20501;-74
2022/11/04 00:30:27;;;;;;;8.15;5.97;;;12.40;99.90;;;;;;5069222;28;20057;-74
2022/11/04 00:35:36;;;;;;;8.30;5.50;;;12.50;99.90;;;;;;5068807;28;20469;-74
2022/11/04 00:38:02;;;;;;;9.20;6.63;;;12.40;99.90;;;;;;5068783;28;20037;-74
2022/11/04 00:40:28;;;;;;;8.07;5.93;;;12.40;99.90;;;;;;5069355;28;20490;-74
2022/11/04 00:42:53;;;;;;;8.68;4.85;;;12.30;99.90;;;;;;5068106;28;20040;-74
2022/11/04 00:45:19;;;;;;;7.63;4.40;;;12.20;99.90;;;;;;5051842;28;20036;-74
2022/11/04 00:47:44;;;;;;;6.25;3.60;;;12.10;99.90;;;;;;5052315;28;20131;-74
2022/11/04 00:50:10;;;;;;;6.88;3.28;;;12.00;99.90;;;;;;5068253;28;20052;-74
2022/11/04 00:52:35;;;;;;;6.07;3.20;;;12.00;99.90;;;;;;5068667;28;20041;-74
2022/11/04 00:55:01;;;;;;;4.70;2.72;;;11.80;99.90;;;;;;5067322;28;20040;-74
2022/11/04 00:57:27;;;;;;;4.07;1.85;;;11.70;99.90;;;;;;5052212;28;20040;-74
2022/11/04 00:59:52;;;;;;;2.63;1.73;;;11.60;99.90;;;;;;5068807;28;20500;-74
2022/11/04 01:02:18;;;;;;;2.88;1.60;;;11.50;99.90;;;;;;5050984;28;20147;-74
2022/11/04 01:04:45;;;;;;;4.72;1.55;;;11.60;99.90;;;;;;5068112;28;20052;-75
2022/11/04 01:07:10;;;;;;;4.35;1.55;;;11.70;99.90;;;;;;5052410;28;20178;-74
2022/11/04 01:09:36;;;;;;;4.28;1.60;;;11.70;99.90;;;;;;5052323;28;20131;-74
2022/11/04 01:12:02;;;;;;;3.58;1.65;;;11.70;99.90;;;;;;5051319;28;20040;-74
2022/11/04 01:14:27;;;;;;;3.15;1.60;;;11.70;99.90;;;;;;5052050;28;20069;-74
2022/11/04 01:16:53;;;;;;;2.33;1.25;;;11.90;99.90;;;;;;5051166;28;20037;-74
2022/11/04 01:19:18;;;;;;;2.80;1.30;;;11.90;99.90;;;;;;5068594;28;20135;-74
2022/11/04 01:21:44;;;;;;;2.63;1.30;;;11.90;99.90;;;;;;5067522;28;20028;-73
2022/11/04 01:24:10;;;;;;;2.70;1.27;;;11.90;99.90;;;;;;5051856;28;20473;-73
2022/11/04 01:26:35;;;;;;;1.75;1.13;;;11.90;99.90;;;;;;5050966;28;20041;-73
2022/11/04 01:29:01;;;;;;;1.98;0.90;;;11.90;99.90;;;;;;5068419;28;20044;-73
2022/11/04 01:31:29;;;;;;;2.92;1.13;;;11.90;99.90;;;;;;5050691;28;20044;-73
2022/11/04 01:33:56;;;;;;;2.40;0.80;;;12.00;99.90;;;;;;5051790;28;20072;-74
2022/11/04 01:36:22;;;;;;;2.40;0.85;;;12.00;99.90;;;;;;5067544;28;20568;-74
2022/11/04 01:38:48;;;;;;;4.10;0.90;;;11.90;99.90;;;;;;5051826;28;20068;-73
2022/11/04 01:41:20;;;;;;;1.58;0.77;;;11.80;99.90;;;;;;5068593;28;20389;-74
2022/11/04 01:43:55;;;;;;;2.72;0.73;;;11.80;99.90;;;;;;5067667;28;20493;-74
2022/11/04 01:46:29;;;;;;;1.85;0.73;;;11.80;99.90;;;;;;5050994;28;20052;-73
2022/11/04 01:49:04;;;;;;;0.70;0.55;;;11.70;99.90;;;;;;5035116;28;20128;-73
2022/11/04 01:51:33;;;;;;;1.05;0.50;;;11.70;99.90;;;;;;5050711;28;20124;-74
2022/11/04 01:54:00;;;;;;;1.60;0.57;;;11.60;99.90;;;;;;5051701;28;20076;-74
2022/11/04 01:56:27;;;;;;;2.05;0.70;;;11.50;99.90;;;;;;5034231;28;20033;-73
2022/11/04 01:58:56;;;;;;;2.05;0.55;;;11.40;99.90;;;;;;5050090;28;20036;-74
2022/11/04 02:01:22;;;;;;;4.13;0.60;;;11.30;99.90;;;;;;5050276;28;20500;-74
2022/11/04 02:04:24;;;;;;;1.27;0.50;;;11.20;99.90;;;;;;5014465;28;20099;-73
2022/11/04 02:06:42;;;;;;;1.95;0.60;;;11.20;99.90;;;;;;5036211;28;20493;-74
2022/11/04 02:09:08;;;;;;;2.35;0.50;;;11.20;99.90;;;;;;5055352;28;20450;-74
2022/11/04 02:14:18;;;;;;;3.08;0.65;;;11.20;99.90;;;;;;5053681;28;20076;-74
2022/11/04 02:16:46;;;;;;;4.15;0.60;;;11.20;99.90;;;;;;5038905;28;20076;-75
2022/11/04 02:19:21;;;;;;;3.28;0.70;;;11.20;99.90;;;;;;5054927;28;20551;-74
2022/11/04 02:22:01;;;;;;;2.90;0.70;;;11.20;99.90;;;;;;5071197;28;20033;-74
2022/11/04 02:24:48;;;;;;;1.75;0.60;;;11.30;99.90;;;;;;5055138;28;20044;-74
2022/11/04 02:27:21;;;;;;;2.60;0.60;;;11.30;99.90;;;;;;5054665;28;20045;-74
2022/11/04 02:30:14;;;;;;;3.95;0.60;;;11.30;99.90;;;;;;5053961;28;20051;-73
2022/11/04 02:33:13;;;;;;;2.05;0.60;;;11.30;99.90;;;;;;5071644;28;20124;-73
2022/11/04 02:35:45;;;;;;;2.85;0.60;;;11.40;99.90;;;;;;5054918;28;20037;-73
2022/11/04 02:38:51;;;;;;;5.13;0.80;;;11.50;99.90;;;;;;5070681;28;20108;-74
2022/11/04 02:41:40;;;;;;;1.83;0.50;;;11.40;99.90;;;;;;5053881;28;20124;-74
2022/11/04 02:44:26;;;;;;;3.38;0.80;;;11.40;99.90;;;;;;5053716;28;20049;-73
2022/11/04 02:47:29;;;;;;;3.85;0.82;;;11.40;99.90;;;;;;5055060;28;20053;-73
2022/11/04 02:50:10;;;;;;;1.88;0.52;;;11.50;99.90;;;;;;4996956;28;20042;-73
2022/11/04 02:52:48;;;;;;;1.45;0.50;;;11.60;99.90;;;;;;5014639;28;20046;-73
2022/11/04 02:55:26;;;;;;;1.55;0.68;;;11.60;99.90;;;;;;5051338;28;20482;-73
2022/11/04 02:57:55;;;;;;;3.60;0.60;;;11.60;99.90;;;;;;5045412;28;20051;-73
2022/11/04 03:00:20;;;;;;;1.30;0.50;;;11.60;99.90;;;;;;5053419;28;20037;-73
2022/11/04 03:02:53;;;;;;;3.10;0.60;;;11.60;99.90;;;;;;5071009;28;20049;-73
2022/11/04 03:05:25;;;;;;;4.00;0.40;;;11.70;99.90;;;;;;5071053;28;20083;-73
2022/11/04 03:07:54;;;;;;;3.40;0.40;;;11.70;99.90;;;;;;5070548;28;20132;-74
2022/11/04 03:10:45;;;;;;;3.75;0.50;;;11.60;99.90;;;;;;5052969;28;20679;-74
2022/11/04 03:13:19;;;;;;;2.53;0.40;;;11.70;99.90;;;;;;5054230;28;20041;-74
2022/11/04 03:15:56;;;;;;;1.88;0.30;;;11.60;99.90;;;;;;5053823;28;20040;-74
2022/11/04 03:19:05;;;;;;;1.13;0.25;;;11.60;99.90;;;;;;5053339;28;20041;-75
2022/11/04 03:21:34;;;;;;;1.58;0.40;;;11.50;99.90;;;;;;5052346;28;20037;-74
2022/11/04 03:24:00;;;;;;;2.30;0.40;;;11.60;99.90;;;;;;5037002;28;20039;-74
2022/11/04 03:26:32;;;;;;;4.75;0.47;;;11.60;99.90;;;;;;5070000;28;20037;-74
2022/11/04 03:28:57;;;;;;;1.60;0.30;;;11.60;99.90;;;;;;5054844;28;20103;-73
2022/11/04 03:31:32;;;;;;;0.20;0.20;;;11.50;99.90;;;;;;5052458;28;20132;-73
2022/11/04 03:33:57;;;;;;;1.25;0.32;;;11.50;99.90;;;;;;5050590;28;20036;-73
2022/11/04 03:36:23;;;;;;;1.13;0.43;;;11.50;99.90;;;;;;5053046;28;20037;-73
2022/11/04 03:38:51;;;;;;;0.40;0.20;;;11.50;99.90;;;;;;5069769;28;20037;-73
2022/11/04 03:41:27;;;;;;;2.38;0.70;;;11.50;99.90;;;;;;5070393;28;20041;-74
2022/11/04 03:43:52;;;;;;;2.53;0.50;;;11.40;99.90;;;;;;5053930;28;20049;-74
2022/11/04 03:46:18;;;;;;;0.80;0.38;;;11.40;99.90;;;;;;5052408;28;20188;-74
2022/11/04 03:48:46;;;;;;;0.63;0.30;;;11.40;99.90;;;;;;5070065;28;20051;-73
2022/11/04 03:51:11;;;;;;;2.88;0.40;;;11.40;99.90;;;;;;5053321;28;20049;-73
2022/11/04 03:53:37;;;;;;;1.48;0.40;;;11.40;99.90;;;;;;5053507;28;20444;-74
2022/11/04 03:56:26;;;;;;;2.47;0.30;;;11.40;99.90;;;;;;5047484;28;20041;-74
2022/11/04 03:59:03;;;;;;;1.00;0.40;;;11.40;99.90;;;;;;5066016;28;20087;-74
2022/11/04 04:01:53;;;;;;;1.98;0.43;;;11.30;99.90;;;;;;5035414;28;20397;-74
2022/11/04 04:04:36;;;;;;;1.15;0.30;;;11.40;99.90;;;;;;5039358;28;20052;-73
2022/11/04 04:07:24;;;;;;;;;;;11.40;99.90;;;;;;5066373;28;20416;-74
2022/11/04 04:09:56;;;;;;;0.73;0.50;;;11.40;99.90;;;;;;5050207;28;19925;-74
2022/11/04 04:12:36;;;;;;;2.38;0.55;;;11.30;99.90;;;;;;5052277;28;20469;-74
2022/11/04 04:15:16;;;;;;;2.90;0.70;;;11.40;99.90;;;;;;5069916;28;20508;-74
2022/11/04 04:17:53;;;;;;;2.22;0.47;;;11.30;99.90;;;;;;5068874;28;20049;-74
2022/11/04 04:20:23;;;;;;;4.03;0.63;;;11.40;99.90;;;;;;5042210;28;20040;-73
2022/11/04 04:23:00;;;;;;;2.20;0.90;;;11.30;99.90;;;;;;5043688;28;20052;-74
2022/11/04 04:28:16;;;;;;;1.83;0.60;;;11.30;99.90;;;;;;5066571;28;20045;-73
2022/11/04 04:30:42;;;;;;;1.30;0.30;;;11.30;99.90;;;;;;5068110;28;20119;-73
2022/11/04 04:33:11;;;;;;;1.02;0.40;;;11.40;99.90;;;;;;5050765;28;20037;-74
2022/11/04 04:35:51;;;;;;;1.35;0.35;;;11.30;99.90;;;;;;5050361;28;20045;-74
2022/11/04 04:46:48;;;;;;;2.53;0.52;;;11.00;99.90;;;;;;5068129;28;20405;-73
2022/11/04 04:49:14;;;;;;;1.95;0.50;;;11.10;99.90;;;;;;5035651;28;20074;-73
2022/11/04 04:51:44;;;;;;;2.05;0.60;;;10.90;99.90;;;;;;5036007;28;20500;-73
2022/11/04 04:54:09;;;;;;;1.48;0.30;;;10.80;99.90;;;;;;5052630;28;20045;-73
2022/11/04 04:56:35;;;;;;;6.72;0.50;;;10.80;99.90;;;;;;5051143;28;20042;-73
2022/11/04 04:59:00;;;;;;;2.05;0.40;;;10.70;99.90;;;;;;5051653;28;20040;-73
2022/11/04 05:01:26;;;;;;;0.95;0.30;;;10.70;99.90;;;;;;5051418;28;20144;-73
2022/11/04 05:03:52;;;;;;;1.65;0.28;;;10.80;99.90;;;;;;5068434;28;20190;-73
2022/11/04 05:06:17;;;;;;;6.57;0.80;;;10.80;99.90;;;;;;5052095;28;20037;-73
2022/11/04 05:08:43;;;;;;;1.20;0.40;;;10.80;99.90;;;;;;5052064;28;20131;-74
2022/11/04 05:11:08;;;;;;;2.58;1.02;;;10.80;99.90;;;;;;5068556;28;20096;-73
2022/11/04 05:13:34;;;;;;;1.63;0.55;;;10.60;99.90;;;;;;5051893;28;20037;-73
2022/11/04 05:16:08;;;;;;;2.00;0.52;;;10.60;99.90;;;;;;5052033;28;20059;-73
2022/11/04 05:18:34;;;;;;;1.65;0.50;;;10.60;99.90;;;;;;5051787;28;20037;-73
2022/11/04 05:21:10;;;;;;;1.38;0.40;;;10.60;99.90;;;;;;5052266;28;20045;-73
2022/11/04 05:23:35;;;;;;;4.10;0.50;;;10.60;99.90;;;;;;5035222;28;20041;-73
2022/11/04 05:26:01;;;;;;;1.30;0.45;;;10.60;99.90;;;;;;5051992;28;20394;-73
2022/11/04 05:28:26;;;;;;;2.13;0.52;;;10.60;99.90;;;;;;5067070;28;20493;-74
2022/11/04 05:30:52;;;;;;;2.40;1.40;;;10.50;99.90;;;;;;5038133;28;20060;-74
2022/11/04 05:33:18;;;;;;;1.92;0.30;;;10.50;99.90;;;;;;5034590;28;20048;-74
2022/11/04 05:35:43;;;;;;;2.58;0.57;;;10.50;99.90;;;;;;5051602;28;20039;-74
2022/11/04 05:38:09;;;;;;;4.45;0.70;;;10.60;99.90;;;;;;5052034;28;20028;-74
2022/11/04 05:40:35;;;;;;;2.83;0.55;;;10.60;99.90;;;;;;5071190;28;20501;-73
2022/11/04 05:43:01;;;;;;;2.75;0.50;;;10.70;99.90;;;;;;5055835;28;20045;-73
2022/11/04 05:45:27;;;;;;;2.50;0.50;;;10.70;99.90;;;;;;5072595;28;20039;-74
2022/11/04 05:47:58;;;;;;;2.65;1.13;;;10.60;99.90;;;;;;5055814;28;20072;-73
2022/11/04 05:50:23;;;;;;;1.92;0.55;;;10.50;99.90;;;;;;5055529;28;20045;-73
2022/11/04 05:52:49;;;;;;;1.27;0.47;;;10.60;99.90;;;;;;5055694;28;20060;-73
2022/11/04 05:55:14;;;;;;;2.42;0.40;;;10.50;99.90;;;;;;5055657;28;20397;-73
2022/11/04 05:57:40;;;;;;;2.50;0.50;;;10.50;99.90;;;;;;5072508;28;20099;-73
2022/11/04 06:00:06;;;;;;;2.80;0.60;;;10.50;99.90;;;;;;5055872;28;20044;-73
2022/11/04 06:02:32;;;;;;;0.82;0.43;;;10.50;99.90;;;;;;5071843;28;20494;-73
2022/11/04 06:04:58;;;;;;;1.75;0.52;;;10.40;99.90;;;;;;5072074;28;20055;-73
2022/11/04 06:07:23;;;;;;;2.28;0.68;;;10.30;99.90;;;;;;5055431;28;20044;-73
2022/11/04 06:09:49;;;;;;;3.35;0.70;;;10.40;99.90;;;;;;5071916;28;20056;-74
2022/11/04 06:12:15;;;;;;;3.88;0.68;;;10.40;99.90;;;;;;5055316;28;20076;-73
2022/11/04 06:14:41;;;;;;;3.13;0.50;;;10.50;99.90;;;;;;5071793;28;20432;-73
2022/11/04 06:17:15;;;;;;;1.67;0.60;;;10.60;99.90;;;;;;5071926;28;20091;-74
2022/11/04 06:19:41;;;;;;;2.38;0.60;;;10.50;99.90;;;;;;5055140;28;20503;-74
2022/11/04 06:22:08;;;;;;;2.03;0.68;;;10.60;99.90;;;;;;5055269;28;20041;-73
2022/11/04 06:24:33;;;;;;;0.82;0.60;;;10.50;99.90;;;;;;5054984;28;20071;-74
2022/11/04 06:26:59;;;;;;;2.00;0.52;;;10.40;99.90;;;;;;5055058;28;20033;-73
2022/11/04 06:29:24;;;;;;;3.85;0.65;;;10.30;99.90;;;;;;5054933;28;20091;-74
2022/11/04 06:31:50;;;;;;;2.15;0.50;;;10.20;99.90;;;;;;5055111;28;20039;-74
2022/11/04 06:34:15;;;;;;;2.00;0.65;;;10.10;99.90;;;;;;5054822;28;20033;-73
2022/11/04 06:36:41;;;;;;;0.98;0.50;;;10.00;99.90;;;;;;5053394;28;20124;-73
2022/11/04 06:39:06;;;;;;;3.08;0.65;;;10.00;99.90;;;;;;5054910;28;20036;-73
2022/11/04 06:41:32;;;;;;;2.60;0.50;;;10.00;99.90;;;;;;5070700;28;20081;-74
2022/11/04 06:43:57;;;;;;;1.88;0.55;;;10.10;99.90;;;;;;5070812;28;20064;-74
2022/11/04 06:46:35;;;;;;;1.45;0.43;;;10.10;99.90;;;;;;5037497;28;20041;-74
2022/11/04 06:49:02;;;;;;;2.72;0.55;;;10.10;99.90;;;;;;5037208;28;20505;-74
2022/11/04 06:51:27;;;;;;;1.73;0.50;;;10.20;99.90;;;;;;5069738;28;20124;-74
2022/11/04 06:53:53;;;;;;;1.73;0.50;;;10.30;99.90;;;;;;5019022;28;20107;-74
2022/11/04 06:56:18;;;;;;;1.20;0.47;;;10.30;99.90;;;;;;5046864;28;20037;-74
2022/11/04 06:58:52;;;;;;;1.60;0.40;;;10.40;99.90;;;;;;5054977;28;20408;-67
2022/11/04 07:01:18;;;;;;;2.13;0.63;;;10.40;99.90;;;;;;5053452;28;20378;-68
2022/11/04 07:03:51;;;;;;;3.15;0.88;;;10.40;99.90;;;;;;5054098;28;20057;-68
2022/11/04 07:06:18;;;;;;;1.58;0.57;;;10.50;99.90;;;;;;5071123;28;20041;-68
2022/11/04 07:08:44;;;;;;;3.15;0.60;;;10.50;99.90;;;;;;5071681;28;20048;-67
2022/11/04 07:11:11;;;;;;;2.85;0.60;;;10.40;99.90;;;;;;5054227;28;20056;-68
2022/11/04 07:13:36;;;;;;;0.85;0.73;;;10.40;99.90;;;;;;5054516;28;20033;-68
2022/11/04 07:16:06;;;;;;;3.20;0.57;;;10.40;99.90;;;;;;5054149;28;20033;-68
2022/11/04 07:18:32;;;;;;;0.80;0.40;;;10.40;99.90;;;;;;5051781;28;20033;-68
2022/11/04 07:20:58;;;;;;;1.48;0.52;;;10.40;99.90;;;;;;5053925;28;20567;-68
2022/11/04 07:23:24;;;;;;;3.15;0.40;;;10.30;99.90;;;;;;5036531;28;20029;-68
2022/11/04 07:25:50;;;;;;;2.28;0.50;;;10.30;99.90;;;;;;5052231;28;20095;-68
2022/11/04 07:28:16;;;;;;;1.38;0.50;;;10.30;99.90;;;;;;5054029;28;20409;-68
2022/11/04 07:30:41;;;;;;;1.30;0.57;;;10.30;99.90;;;;;;5053747;28;20045;-68
2022/11/04 07:33:07;;;;;;;1.50;1.00;;;10.30;99.90;;;;;;5037258;28;20059;-68
2022/11/04 07:35:33;;;;;;;3.13;0.50;;;10.30;99.90;;;;;;5053734;28;20094;-68
2022/11/04 07:37:58;;;;;;;1.38;0.60;;;10.30;99.90;;;;;;5070322;28;20082;-68
2022/11/04 07:40:24;;;;;;;1.95;0.50;;;10.20;99.90;;;;;;5053689;28;20106;-68
2022/11/04 07:42:50;;;;;;;1.63;0.50;;;10.20;99.90;;;;;;5053781;28;20047;-68
2022/11/04 07:45:15;;;;;;;1.15;0.60;;;10.20;99.90;;;;;;5053507;28;20037;-68
2022/11/04 07:47:41;;;;;;;4.57;0.82;;;10.20;99.90;;;;;;5053889;28;20082;-68
2022/11/04 07:50:07;;;;;;;1.38;0.70;;;10.30;99.90;;;;;;5053565;28;20037;-68
2022/11/04 07:52:32;;;;;;;1.02;0.65;;;10.30;99.90;;;;;;5053509;28;20040;-68
2022/11/04 07:54:58;;;;;;;3.15;0.80;;;10.20;99.90;;;;;;5036914;28;20064;-68
2022/11/04 07:57:23;;;;;;;2.15;0.70;;;10.20;99.90;;;;;;5036612;28;20033;-68
2022/11/04 07:59:49;;;;;;;2.10;0.90;;;10.20;99.90;;;;;;5053591;28;20051;-68
2022/11/04 08:02:15;;;;;;;2.60;0.80;;;10.20;99.90;;;;;;5052927;28;20501;-68
2022/11/04 08:04:40;;;;;;;3.72;0.85;;;10.30;99.90;;;;;;5053216;28;20135;-68
2022/11/04 08:07:09;;;;;;;2.40;0.90;;;10.20;99.90;;;;;;5053393;28;20076;-68
2022/11/04 08:09:35;;;;;;;3.30;0.90;;;10.20;99.90;;;;;;5052968;28;20486;-68
2022/11/04 08:12:02;;;;;;;3.45;1.13;;;10.20;99.90;;;;;;5053120;28;20037;-68
2022/11/04 08:14:27;;;;;;;1.45;0.80;;;10.20;99.90;;;;;;5053235;28;20489;-68
2022/11/04 08:16:53;;;;;;;4.22;0.95;;;10.20;99.90;;;;;;5036764;28;20079;-68
2022/11/04 08:19:18;;;;;;;3.38;1.00;;;10.30;99.90;;;;;;5053037;28;20037;-68
2022/11/04 08:21:44;;;;;;;3.38;1.02;;;10.20;99.90;;;;;;5052930;28;20075;-68
2022/11/04 08:24:10;;;;;;;1.67;0.90;;;10.10;99.90;;;;;;5053063;28;20049;-68
2022/11/04 08:26:35;;;;;;;2.08;1.00;;;10.10;99.90;;;;;;5069359;28;20079;-68
2022/11/04 08:29:06;;;;;;;2.72;1.13;;;10.10;99.90;;;;;;5052785;28;20097;-68
2022/11/04 08:31:32;;;;;;;2.40;1.08;;;10.20;99.90;;;;;;5035913;28;20041;-69
2022/11/04 08:33:58;;;;;;;3.03;1.10;;;10.30;99.90;;;;;;5053020;28;20036;-68
2022/11/04 08:36:28;;;;;;;3.92;1.00;;;10.30;99.90;;;;;;5049438;28;20114;-76
2022/11/04 08:38:55;;;;;;;3.40;1.27;;;10.40;99.90;;;;;;5036443;28;20037;-77
2022/11/04 08:41:24;;;;;;;2.75;1.00;;;10.40;99.90;;;;;;5035261;28;20037;-77
2022/11/04 08:43:50;;;;;;;1.83;0.70;;;10.40;99.90;;;;;;5051505;28;20051;-77
2022/11/04 08:46:17;;;;;;;2.15;0.85;;;10.30;99.90;;;;;;5049877;28;20397;-77
2022/11/04 08:48:43;;;;;;;2.28;0.93;;;10.40;99.90;;;;;;5052616;28;20037;-77
2022/11/04 08:51:21;;;;;;;3.15;0.82;;;10.40;99.90;;;;;;5051655;28;20069;-77
2022/11/04 08:53:47;;;;;;;2.88;0.90;;;10.50;99.90;;;;;;5052417;28;20040;-77
2022/11/04 08:56:28;;;;;;;1.77;1.00;;;10.50;99.90;;;;;;5034592;28;20045;-77
2022/11/04 08:58:57;;;;;;;1.80;0.80;;;10.50;99.90;;;;;;5052377;28;20033;-77
2022/11/04 09:01:23;;;;;;;2.28;0.90;;;10.50;99.90;;;;;;5052000;28;20045;-77
2022/11/04 09:03:49;;;;;;;3.03;0.90;;;10.50;99.90;;;;;;5034732;28;20052;-77
2022/11/04 09:06:20;;;;;;;3.25;0.95;;;10.50;99.90;;;;;;5068851;28;20111;-77
2022/11/04 09:08:45;;;;;;;2.53;0.77;;;10.50;99.90;;;;;;5052265;28;20127;-77
2022/11/04 09:11:13;;;;;;;3.13;1.00;;;10.60;99.90;;;;;;5068773;28;20147;-77
2022/11/04 09:13:39;;;;;;;4.10;1.00;;;10.70;99.90;;;;;;5068512;28;20481;-77
2022/11/04 09:16:06;;;;;;;6.05;1.00;;;10.70;99.90;;;;;;5066086;28;20083;-77
2022/11/04 09:18:32;;;;;;;2.42;0.82;;;10.80;99.90;;;;;;5051926;28;20048;-77
2022/11/04 09:21:02;;;;;;;4.55;0.73;;;10.90;99.90;;;;;;5067610;28;20045;-77
2022/11/04 09:23:27;;;;;;;3.13;0.90;;;11.10;99.90;;;;;;5052152;28;20041;-77
2022/11/04 09:25:56;;;;;;;2.28;0.75;;;11.20;99.90;;;;;;5050214;28;20040;-77
2022/11/04 09:28:21;;;;;;;3.35;0.80;;;11.30;99.90;;;;;;5052038;28;20059;-77
2022/11/04 09:30:47;;;;;;;4.95;1.00;;;11.40;99.90;;;;;;5067454;28;20037;-77
2022/11/04 09:33:12;;;;;;;3.97;0.80;;;11.50;99.90;;;;;;5048744;28;20029;-77
2022/11/04 09:35:38;;;;;;;2.65;0.70;;;11.70;99.90;;;;;;5027099;28;20037;-77
2022/11/04 09:38:03;;;;;;;2.55;0.77;;;11.70;99.90;;;;;;5015518;28;20041;-68
2022/11/04 09:40:32;;;;;;;4.68;0.85;;;11.70;99.90;;;;;;5034922;28;20053;-68
2022/11/04 09:43:09;;;;;;;3.40;0.77;;;11.90;99.90;;;;;;5048064;28;20045;-68
2022/11/04 09:45:39;;;;;;;3.65;0.88;;;12.00;99.90;;;;;;5063197;28;20053;-68
2022/11/04 09:48:20;;;;;;;4.25;0.90;;;12.00;99.90;;;;;;5051118;28;20045;-68
2022/11/04 09:50:51;;;;;;;4.63;0.90;;;12.00;99.90;;;;;;5049286;28;20049;-68
2022/11/04 09:53:24;;;;;;;4.53;1.30;;;12.00;99.90;;;;;;5034579;28;20079;-68
2022/11/04 09:55:59;;;;;;;4.18;0.80;;;12.00;99.90;;;;;;5034370;28;20037;-68
2022/11/04 09:58:27;;;;;;;3.00;0.80;;;12.10;99.90;;;;;;5049992;28;20045;-68
2022/11/04 10:00:58;;;;;;;2.17;0.70;;;12.30;99.90;;;;;;5067707;28;20040;-68
2022/11/04 10:03:55;;;;;;;4.70;1.10;;;12.30;99.90;;;;;;5040013;28;20061;-68
2022/11/04 10:07:10;;;;;;;4.45;0.90;;;12.30;99.90;;;;;;5031558;28;20052;-68
2022/11/04 10:09:58;;;;;;;5.53;0.98;;;12.30;99.90;;;;;;4993051;28;20549;-69
2022/11/04 10:12:39;;;;;;;2.80;0.80;;;12.30;99.90;;;;;;5020268;28;20052;-68
2022/11/04 10:15:28;;;;;;;3.58;0.73;;;12.40;99.90;;;;;;5048354;28;20041;-68
2022/11/04 10:18:32;;;;;;;5.78;1.17;;;12.30;99.90;;;;;;5032207;28;20504;-68
2022/11/04 10:21:29;;;;;;;3.88;0.90;;;12.30;99.90;;;;;;5059710;28;20037;-68
2022/11/04 10:24:22;;;;;;;3.55;0.88;;;12.40;99.90;;;;;;5051539;28;20041;-69
2022/11/04 10:27:08;;;;;;;2.90;1.10;;;12.50;99.90;;;;;;5067736;28;20476;-68
2022/11/04 10:30:03;;;;;;;3.97;1.00;;;12.60;99.90;;;;;;5049620;28;20037;-68
2022/11/04 10:32:39;;;;;;;4.53;0.90;;;12.70;99.90;;;;;;5043274;28;20098;-68
2022/11/04 10:35:25;;;;;;;3.13;1.20;;;12.60;99.90;;;;;;5049505;28;20044;-68
2022/11/04 10:37:53;;;;;;;3.20;1.10;;;12.70;99.90;;;;;;5070016;28;20041;-68
2022/11/04 10:40:36;;;;;;;5.40;1.25;;;12.70;99.90;;;;;;5036291;28;20033;-68
2022/11/04 10:43:07;;;;;;;5.57;1.65;;;12.70;99.90;;;;;;5051989;28;20044;-68
2022/11/04 10:45:59;;;;;;;2.95;1.08;;;12.70;99.90;;;;;;5054647;28;20401;-68
2022/11/04 10:48:39;;;;;;;3.08;1.40;;;12.60;99.90;;;;;;5070988;28;20045;-68
2022/11/04 10:51:05;;;;;;;5.18;1.25;;;12.60;99.90;;;;;;5033632;28;20460;-68
2022/11/04 10:53:32;;;;;;;4.78;1.80;;;12.70;99.90;;;;;;5068712;28;20110;-68
2022/11/04 10:56:21;;;;;;;3.58;1.60;;;12.60;99.90;;;;;;5070576;28;20060;-68
2022/11/04 10:58:47;;;;;;;4.97;1.50;;;12.60;99.90;;;;;;5049617;28;20044;-68
2022/11/04 11:01:23;;;;;;;4.75;1.27;;;12.70;99.90;;;;;;5053656;28;20041;-68
2022/11/04 11:03:49;;;;;;;4.22;1.10;;;12.80;99.90;;;;;;5053667;28;20124;-68
2022/11/04 11:06:23;;;;;;;3.67;1.17;;;12.90;99.90;;;;;;5053206;28;20116;-68
2022/11/04 11:08:50;;;;;;;4.13;1.27;;;12.80;99.90;;;;;;5068136;28;20075;-68
2022/11/04 11:11:38;;;;;;;6.10;1.48;;;12.90;99.90;;;;;;5050760;28;20405;-68
2022/11/04 11:14:04;;;;;;;5.57;1.80;;;12.80;99.90;;;;;;5053158;28;20451;-68
2022/11/04 11:16:30;;;;;;;5.68;1.80;;;12.80;99.90;;;;;;5069640;28;20037;-68
2022/11/04 11:19:13;;;;;;;5.53;1.67;;;12.80;99.90;;;;;;5052330;28;20076;-68
2022/11/04 11:21:44;;;;;;;6.22;2.03;;;12.80;99.90;;;;;;5052719;28;20119;-68
2022/11/04 11:24:24;;;;;;;5.73;1.63;;;12.70;99.90;;;;;;5053703;28;20431;-68
2022/11/04 11:27:10;;;;;;;4.18;1.38;;;12.70;99.90;;;;;;5052629;28;20033;-68
2022/11/04 11:29:41;;;;;;;5.38;1.88;;;12.60;99.90;;;;;;5057033;28;20134;-68
2022/11/04 11:32:31;;;;;;;5.40;1.30;;;12.50;99.90;;;;;;5051231;28;20519;-68
2022/11/04 11:35:00;;;;;;;4.97;1.40;;;12.40;99.90;;;;;;5063625;28;20044;-68
2022/11/04 11:37:30;;;;;;;5.72;1.58;;;12.50;99.90;;;;;;5052149;28;20067;-68
2022/11/04 11:39:56;;;;;;;6.00;1.30;;;12.50;99.90;;;;;;5052254;28;20072;-68
2022/11/04 11:42:23;;;;;;;5.60;1.58;;;12.50;99.90;;;;;;5052020;28;20060;-68
2022/11/04 11:44:52;;;;;;;3.45;1.30;;;12.50;99.90;;;;;;5052700;28;20045;-68
2022/11/04 11:47:30;;;;;;;4.65;1.48;;;12.50;99.90;;;;;;5034982;28;20040;-68
2022/11/04 11:50:14;;;;;;;3.92;1.45;;;12.50;99.90;;;;;;5045829;28;20075;-68
2022/11/04 11:52:41;;;;;;;6.55;1.25;;;12.50;99.90;;;;;;5049987;28;20049;-68
2022/11/04 11:55:14;;;;;;;3.75;1.00;;;12.40;99.90;;;;;;5033225;28;20029;-68
2022/11/04 11:57:44;;;;;;;3.55;1.00;;;12.40;99.90;;;;;;5047708;28;20037;-68
2022/11/04 12:00:15;;;;;;;4.40;1.13;;;12.40;99.90;;;;;;5044937;28;20117;-68
2022/11/04 12:02:48;;;;;;;3.70;1.17;;;12.30;99.90;;;;;;5051588;28;20056;-69
2022/11/04 12:05:17;;;;;;;8.98;1.40;;;12.40;99.90;;;;;;5049324;28;20044;-68
2022/11/04 12:07:50;;;;;;;4.80;1.50;;;12.30;99.90;;;;;;5051595;28;20512;-68
2022/11/04 12:10:32;;;;;;;6.05;1.48;;;12.30;99.90;;;;;;5052823;28;20076;-68
2022/11/04 12:13:13;;;;;;;6.43;1.33;;;12.30;99.90;;;;;;5049993;28;20089;-68
2022/11/04 12:16:02;;;;;;;6.18;1.02;;;12.20;99.90;;;;;;5059328;28;20493;-68
2022/11/04 12:18:32;;;;;;;3.78;0.80;;;12.20;99.90;;;;;;5051909;28;20043;-68
2022/11/04 12:21:12;;;;;;;4.95;0.95;;;12.20;99.90;;;;;;5065408;28;20071;-68
2022/11/04 12:23:43;;;;;;;5.43;1.00;;;12.20;99.90;;;;;;5035778;28;20051;-68
2022/11/04 12:26:12;;;;;;;3.97;1.10;;;12.10;99.90;;;;;;5052681;28;20072;-68
2022/11/04 12:28:46;;;;;;;5.80;1.00;;;12.10;99.90;;;;;;5051508;28;20806;-68
2022/11/04 12:31:36;;;;;;;3.47;0.75;;;12.00;99.90;;;;;;5050546;28;20041;-68
2022/11/04 12:34:09;;;;;;;3.92;0.90;;;11.80;99.90;;;;;;5034594;28;20033;-68
2022/11/04 12:36:54;;;;;;;4.15;0.80;;;11.80;99.90;;;;;;5050085;28;20047;-69
2022/11/04 12:40:01;;;;;;;4.82;1.23;;;11.80;99.90;;;;;;5050162;28;20036;-68
2022/11/04 12:42:35;;;;;;;7.35;1.30;;;11.90;99.90;;;;;;5067043;28;20127;-68
2022/11/04 12:45:47;;;;;;;4.28;1.50;;;11.90;99.90;;;;;;5069196;28;20432;-68
2022/11/04 12:48:54;;;;;;;5.63;1.30;;;11.80;99.90;;;;;;5016187;28;20508;-68
2022/11/04 12:51:31;;;;;;;3.22;0.80;;;11.90;99.90;;;;;;5042943;28;20044;-68
2022/11/04 12:54:31;;;;;;;3.72;0.95;;;11.90;99.90;;;;;;5034328;28;20040;-68
2022/11/04 12:57:13;;;;;;;3.67;0.80;;;11.90;99.90;;;;;;5022430;28;20138;-68
2022/11/04 12:59:58;;;;;;;;;;;12.00;99.90;;;;;;5032217;28;20029;-68
2022/11/04 13:02:33;;;;;;;2.05;0.60;;;11.90;99.90;;;;;;5065232;28;19962;-68
2022/11/04 13:05:14;;;;;;;2.85;0.52;;;12.00;99.90;;;;;;5067431;28;20044;-68
2022/11/04 13:07:44;;;;;;;2.83;0.70;;;11.90;99.90;;;;;;5051910;28;20095;-68
2022/11/04 13:10:35;;;;;;;2.92;0.70;;;11.90;99.90;;;;;;5051584;28;20047;-68
2022/11/04 13:13:01;;;;;;;4.63;0.90;;;11.70;99.90;;;;;;5050660;28;20468;-68
2022/11/04 13:15:32;;;;;;;3.58;0.80;;;11.70;99.90;;;;;;5050673;28;20536;-68
2022/11/04 13:18:03;;;;;;;2.78;0.63;;;11.60;99.90;;;;;;5049365;28;20159;-68
2022/11/04 13:20:42;;;;;;;3.17;0.73;;;11.50;99.90;;;;;;5034443;28;20434;-68
2022/11/04 13:23:32;;;;;;;3.05;0.60;;;11.50;99.90;;;;;;5047334;28;20040;-68
2022/11/04 13:26:00;;;;;;;3.40;0.77;;;11.40;99.90;;;;;;5046908;28;20078;-68
2022/11/04 13:28:26;;;;;;;2.08;0.80;;;11.40;99.90;;;;;;5046835;28;20047;-68
2022/11/04 13:31:17;;;;;;;2.75;0.60;;;11.40;99.90;;;;;;5042569;28;20044;-68
2022/11/04 13:33:57;;;;;;;3.55;0.65;;;11.40;99.90;;;;;;5021479;28;20037;-68
2022/11/04 13:36:39;;;;;;;2.88;0.75;;;11.40;99.90;;;;;;5028934;28;20370;-68
2022/11/04 13:39:17;;;;;;;4.60;1.17;;;11.40;99.90;;;;;;5041050;28;20489;-68
2022/11/04 13:41:58;;;;;;;4.70;1.20;;;11.50;99.90;;;;;;5083383;28;20500;-68
2022/11/04 13:44:30;;;;;;;3.85;0.95;;;11.50;99.90;;;;;;5038680;28;20043;-69